createdAt,value
2019-04-29T00:01:02.293Z,100635.77
2019-04-29T00:05:09.766Z,100630.48
2019-04-29T00:09:18.829Z,100634.12
2019-04-29T00:13:25.622Z,100637.26
2019-04-29T00:17:42.026Z,100632.97
2019-04-29T00:21:50.324Z,100627.37
2019-04-29T00:25:57.044Z,100632.63
2019-04-29T00:30:03.868Z,100628.86
2019-04-29T00:34:11.251Z,100627.36
2019-04-29T00:38:37.663Z,100635.27
2019-04-29T00:42:53.445Z,100632.14
2019-04-29T00:47:00.146Z,100638.58
2019-04-29T00:51:07.885Z,100632.79
2019-04-29T00:55:17.193Z,100631.64
2019-04-29T00:59:23.932Z,100626.34
2019-04-29T01:03:31.179Z,100633.45
2019-04-29T01:07:37.849Z,100636.23
2019-04-29T01:11:45.072Z,100644.47
2019-04-29T01:15:52.798Z,100640.67
2019-04-29T01:19:59.495Z,100635.89
2019-04-29T01:24:06.622Z,100641.48
2019-04-29T01:28:22.122Z,100631.95
2019-04-29T01:32:28.824Z,100642.97
2019-04-29T01:36:38.313Z,100638.52
2019-04-29T01:40:51.421Z,100637.85
2019-04-29T01:44:58.233Z,100637.52
2019-04-29T01:49:04.956Z,100639.80
2019-04-29T01:53:11.608Z,100635.20
2019-04-29T01:57:19.042Z,100637.83
2019-04-29T02:01:25.709Z,100643.59
2019-04-29T02:05:33.803Z,100646.73
2019-04-29T02:09:58.274Z,100647.36
2019-04-29T02:14:04.980Z,100649.32
2019-04-29T02:18:11.742Z,100649.80
2019-04-29T02:22:28.914Z,100647.66
2019-04-29T02:26:35.658Z,100649.63
2019-04-29T02:30:46.752Z,100639.87
2019-04-29T02:34:53.521Z,100650.89
2019-04-29T02:39:34.217Z,100645.12
2019-04-29T02:43:42.573Z,100646.59
2019-04-29T02:47:49.466Z,100651.86
2019-04-29T02:51:56.241Z,100647.55
2019-04-29T02:56:03.279Z,100652.33
2019-04-29T03:00:20.803Z,100646.05
2019-04-29T03:04:29.910Z,100649.55
2019-04-29T03:08:36.606Z,100651.28
2019-04-29T03:12:43.325Z,100643.86
2019-04-29T03:16:50.157Z,100646.19
2019-04-29T03:21:05.473Z,100641.00
2019-04-29T03:25:12.362Z,100643.83
2019-04-29T03:29:25.422Z,100647.72
2019-04-29T03:33:32.289Z,100643.11
2019-04-29T03:37:39.022Z,100639.95
2019-04-29T03:41:45.715Z,100639.23
2019-04-29T03:45:52.647Z,100635.22
2019-04-29T03:49:59.491Z,100638.11
2019-04-29T03:54:07.871Z,100644.02
2019-04-29T03:58:14.601Z,100642.99
2019-04-29T04:02:46.028Z,100644.95
2019-04-29T04:06:58.321Z,100650.42
2019-04-29T04:11:05.126Z,100655.19
2019-04-29T04:15:11.932Z,100659.34
2019-04-29T04:19:19.727Z,100659.67
2019-04-29T04:23:26.618Z,100668.05
2019-04-29T04:27:33.293Z,100668.33
2019-04-29T04:31:41.131Z,100669.60
2019-04-29T04:35:47.800Z,100670.59
2019-04-29T04:39:55.023Z,100678.75
2019-04-29T04:44:01.775Z,100684.17
2019-04-29T04:48:08.524Z,100688.05
2019-04-29T04:52:15.325Z,100686.06
2019-04-29T04:56:22.300Z,100686.35
2019-04-29T05:00:30.828Z,100693.50
2019-04-29T05:04:37.584Z,100694.55
2019-04-29T05:08:44.262Z,100694.13
2019-04-29T05:12:50.967Z,100703.30
2019-04-29T05:16:57.766Z,100713.45
2019-04-29T05:21:04.562Z,100721.70
2019-04-29T05:25:11.466Z,100720.52
2019-04-29T05:29:18.401Z,100720.48
2019-04-29T05:33:25.185Z,100722.08
2019-04-29T05:37:37.750Z,100718.47
2019-04-29T05:41:44.466Z,100725.61
2019-04-29T05:45:58.354Z,100731.16
2019-04-29T05:50:42.765Z,100734.48
2019-04-29T05:54:49.652Z,100746.08
2019-04-29T05:58:56.901Z,100743.92
2019-04-29T06:03:03.787Z,100746.38
2019-04-29T06:07:10.540Z,100747.06
2019-04-29T06:11:17.223Z,100746.78
2019-04-29T06:15:23.958Z,100747.19
2019-04-29T06:19:35.154Z,100750.19
2019-04-29T06:23:42.613Z,100750.39
2019-04-29T06:27:49.406Z,100760.48
2019-04-29T06:31:56.112Z,100763.17
2019-04-29T06:36:02.904Z,100762.20
2019-04-29T06:40:10.297Z,100762.53
2019-04-29T06:44:17.082Z,100764.52
2019-04-29T06:48:23.811Z,100766.33
2019-04-29T06:52:30.632Z,100768.98
2019-04-29T06:56:37.341Z,100765.15
2019-04-29T07:00:44.110Z,100763.48
2019-04-29T07:04:50.837Z,100770.76
2019-04-29T07:08:57.659Z,100777.78
2019-04-29T07:13:04.492Z,100772.17
2019-04-29T07:17:11.272Z,100765.08
2019-04-29T07:21:17.969Z,100770.33
2019-04-29T07:25:28.342Z,100763.31
2019-04-29T07:29:33.527Z,100758.79
2019-04-29T07:33:40.429Z,100757.23
2019-04-29T07:37:47.132Z,100755.25
2019-04-29T07:41:54.734Z,100756.86
2019-04-29T07:46:17.812Z,100755.36
2019-04-29T07:50:26.624Z,100753.16
2019-04-29T07:54:33.167Z,100756.13
2019-04-29T07:58:39.896Z,100761.90
2019-04-29T08:02:47.251Z,100760.03
2019-04-29T08:06:55.367Z,100758.56
2019-04-29T08:11:02.073Z,100754.48
2019-04-29T08:15:10.555Z,100748.78
2019-04-29T08:19:17.423Z,100754.27
2019-04-29T08:23:24.232Z,100742.61
2019-04-29T08:27:39.817Z,100744.44
2019-04-29T08:31:39.457Z,100741.65
2019-04-29T08:35:46.899Z,100740.38
2019-04-29T08:40:14.788Z,100739.28
2019-04-29T08:44:26.879Z,100740.12
2019-04-29T08:48:33.667Z,100742.30
2019-04-29T08:52:40.435Z,100737.63
2019-04-29T08:57:02.381Z,100737.33
2019-04-29T09:00:56.165Z,100734.95
2019-04-29T09:05:06.753Z,100737.55
2019-04-29T09:09:27.955Z,100734.09
2019-04-29T09:13:21.088Z,100733.28
2019-04-29T09:17:27.759Z,100736.66
2019-04-29T09:21:34.588Z,100738.52
2019-04-29T09:26:03.395Z,100731.80
2019-04-29T09:30:13.418Z,100729.84
2019-04-29T09:34:24.703Z,100726.20
2019-04-29T09:38:32.541Z,100729.13
2019-04-29T09:43:15.233Z,100726.73
2019-04-29T09:47:14.491Z,100719.78
2019-04-29T09:51:22.464Z,100718.16
2019-04-29T09:55:30.094Z,100719.65
2019-04-29T09:59:45.408Z,100712.82
2019-04-29T10:04:11.614Z,100712.09
2019-04-29T10:08:18.537Z,100708.69
2019-04-29T10:12:25.290Z,100703.97
2019-04-29T10:16:51.584Z,100709.09
2019-04-29T10:21:01.818Z,100702.24
2019-04-29T10:25:09.550Z,100700.25
2019-04-29T10:29:20.175Z,100688.05
2019-04-29T10:33:28.058Z,100687.84
2019-04-29T10:37:36.367Z,100681.63
2019-04-29T10:41:44.285Z,100679.78
2019-04-29T10:46:15.776Z,100679.48
2019-04-29T10:50:30.521Z,100673.22
2019-04-29T10:54:37.764Z,100662.33
2019-04-29T10:58:44.548Z,100657.48
2019-04-29T11:02:51.600Z,100653.89
2019-04-29T11:07:13.410Z,100654.34
2019-04-29T11:11:22.116Z,100648.94
2019-04-29T11:15:21.798Z,100633.49
2019-04-29T11:19:28.744Z,100629.33
2019-04-29T11:23:41.707Z,100625.81
2019-04-29T11:27:51.995Z,100617.31
2019-04-29T11:32:00.371Z,100615.61
2019-04-29T11:36:11.825Z,100605.88
2019-04-29T11:40:26.104Z,100595.26
2019-04-29T11:44:31.987Z,100583.83
2019-04-29T11:48:38.953Z,100581.19
2019-04-29T11:52:48.161Z,100586.70
2019-04-29T11:56:55.225Z,100579.05
2019-04-29T12:01:37.336Z,100580.13
2019-04-29T12:05:40.127Z,100575.08
2019-04-29T12:09:50.020Z,100570.70
2019-04-29T12:14:14.053Z,100567.11
2019-04-29T12:18:24.448Z,100556.27
2019-04-29T12:22:31.337Z,100556.00
2019-04-29T12:26:42.997Z,100541.28
2019-04-29T12:30:48.279Z,100543.21
2019-04-29T12:35:21.717Z,100541.44
2019-04-29T12:39:59.720Z,100534.44
2019-04-29T12:44:09.855Z,100532.48
2019-04-29T12:48:25.100Z,100523.02
2019-04-29T12:52:27.343Z,100512.83
2019-04-29T12:56:36.627Z,100518.41
2019-04-29T13:00:48.053Z,100506.72
2019-04-29T13:05:14.222Z,100507.61
2019-04-29T13:09:28.099Z,100498.00
2019-04-29T13:13:34.998Z,100493.75
2019-04-29T13:18:03.127Z,100478.05
2019-04-29T13:22:01.973Z,100482.51
2019-04-29T13:26:08.956Z,100482.99
2019-04-29T13:30:16.503Z,100479.35
2019-04-29T13:34:33.474Z,100489.82
2019-04-29T13:38:40.062Z,100474.41
2019-04-29T13:42:49.224Z,100476.64
2019-04-29T13:47:07.454Z,100460.02
2019-04-29T13:51:34.726Z,100458.59
2019-04-29T13:55:47.036Z,100464.31
2019-04-29T13:59:47.570Z,100454.06
2019-04-29T14:03:55.421Z,100451.95
2019-04-29T14:08:03.970Z,100453.25
2019-04-29T14:12:46.588Z,100446.42
2019-04-29T14:16:47.505Z,100440.05
2019-04-29T14:20:53.444Z,100441.20
2019-04-29T14:25:02.755Z,100441.44
2019-04-29T14:29:11.620Z,100438.83
2019-04-29T14:33:26.184Z,100439.87
2019-04-29T14:37:33.739Z,100425.33
2019-04-29T14:41:51.035Z,100419.08
2019-04-29T14:46:19.199Z,100432.39
2019-04-29T14:50:28.896Z,100426.15
2019-04-29T14:54:50.787Z,100431.36
2019-04-29T14:59:06.725Z,100422.91
2019-04-29T15:03:10.691Z,100432.98
2019-04-29T15:07:20.977Z,100428.52
2019-04-29T15:11:35.624Z,100441.16
2019-04-29T15:16:05.314Z,100442.05
2019-04-29T15:20:40.890Z,100443.38
2019-04-29T15:24:48.555Z,100450.20
2019-04-29T15:28:56.043Z,100451.23
2019-04-29T15:33:07.192Z,100456.59
2019-04-29T15:37:16.981Z,100449.19
2019-04-29T15:41:33.182Z,100455.40
2019-04-29T15:45:41.073Z,100452.84
2019-04-29T15:49:55.508Z,100455.52
2019-04-29T15:54:09.149Z,100459.68
2019-04-29T15:58:15.389Z,100465.27
2019-04-29T16:03:42.819Z,100459.65
2019-04-29T16:14:54.248Z,100471.52
2019-04-29T16:19:31.640Z,100467.02
2019-04-29T16:23:44.480Z,100466.41
2019-04-29T16:28:07.068Z,100467.53
2019-04-29T16:32:21.586Z,100466.89
2019-04-29T16:36:35.125Z,100468.13
2019-04-29T16:40:57.210Z,100460.77
2019-04-29T16:45:12.112Z,100467.70
2019-04-29T16:49:16.329Z,100463.59
2019-04-29T16:53:23.222Z,100471.45
2019-04-29T16:57:29.937Z,100469.49
2019-04-29T17:01:36.721Z,100473.47
2019-04-29T17:05:43.800Z,100458.94
2019-04-29T17:10:03.321Z,100455.14
2019-04-29T17:14:12.735Z,100443.48
2019-04-29T17:18:19.238Z,100434.27
2019-04-29T17:22:27.698Z,100439.35
2019-04-29T17:26:44.108Z,100430.49
2019-04-29T17:31:22.904Z,100428.16
2019-04-29T17:35:32.410Z,100428.16
2019-04-29T17:39:40.238Z,100435.15
2019-04-29T17:44:09.496Z,100436.63
2019-04-29T17:48:35.642Z,100438.23
2019-04-29T17:52:46.457Z,100438.75
2019-04-29T17:57:25.643Z,100440.87
2019-04-29T18:01:56.136Z,100449.14
2019-04-29T18:06:49.002Z,100457.95
2019-04-29T18:11:06.604Z,100439.52
2019-04-29T18:15:17.676Z,100422.39
2019-04-29T18:19:30.872Z,100428.70
2019-04-29T18:23:56.793Z,100424.02
2019-04-29T18:28:05.201Z,100427.80
2019-04-29T18:32:12.190Z,100426.03
2019-04-29T18:36:24.040Z,100423.25
2019-04-29T18:40:30.149Z,100429.58
2019-04-29T18:44:54.275Z,100426.22
2019-04-29T18:48:50.087Z,100431.17
2019-04-29T18:52:57.514Z,100432.95
2019-04-29T18:57:05.861Z,100435.09
2019-04-29T19:01:14.032Z,100439.41
2019-04-29T19:05:32.367Z,100438.70
2019-04-29T19:09:49.614Z,100447.37
2019-04-29T19:13:56.658Z,100453.90
2019-04-29T19:18:07.633Z,100460.63
2019-04-29T19:22:16.506Z,100468.38
2019-04-29T19:26:25.845Z,100462.88
2019-04-29T19:30:32.311Z,100465.42
2019-04-29T19:34:43.088Z,100467.42
2019-04-29T19:38:48.351Z,100478.88
2019-04-29T19:42:55.936Z,100475.92
2019-04-29T19:47:03.328Z,100482.80
2019-04-29T19:51:16.021Z,100479.08
2019-04-29T19:55:18.854Z,100478.84
2019-04-29T19:59:26.807Z,100481.49
2019-04-29T20:03:41.551Z,100482.77
2019-04-29T20:07:50.305Z,100485.78
2019-04-29T20:12:13.274Z,100491.88
2019-04-29T20:16:43.077Z,100490.67
2019-04-29T20:20:42.843Z,100498.18
2019-04-29T20:24:51.706Z,100498.89
2019-04-29T20:28:59.418Z,100494.89
2019-04-29T20:33:11.100Z,100497.59
2019-04-29T20:37:18.142Z,100493.81
2019-04-29T20:41:38.106Z,100494.37
2019-04-29T20:45:32.119Z,100491.60
2019-04-29T20:49:39.842Z,100486.80
2019-04-29T20:53:56.092Z,100485.48
2019-04-29T20:58:06.393Z,100493.23
2019-04-29T21:02:13.244Z,100494.97
2019-04-29T21:06:21.593Z,100491.85
2019-04-29T21:10:30.526Z,100485.80
2019-04-29T21:14:46.340Z,100489.91
2019-04-29T21:18:56.690Z,100487.63
2019-04-29T21:23:03.081Z,100485.42
2019-04-29T21:27:10.075Z,100487.38
2019-04-29T21:31:20.017Z,100486.19
2019-04-29T21:35:36.113Z,100486.20
2019-04-29T21:39:56.353Z,100490.73
2019-04-29T21:44:05.187Z,100485.33
2019-04-29T21:48:12.028Z,100488.97
2019-04-29T21:52:19.580Z,100488.30
2019-04-29T21:56:27.673Z,100489.92
2019-04-29T22:00:35.233Z,100488.71
2019-04-29T22:04:45.003Z,100486.91
2019-04-29T22:08:54.280Z,100491.25
2019-04-29T22:13:02.372Z,100495.42
2019-04-29T22:17:09.354Z,100492.62
2019-04-29T22:21:22.036Z,100488.48
2019-04-29T22:25:25.840Z,100492.52
2019-04-29T22:29:37.310Z,100496.19
2019-04-29T22:33:41.468Z,100499.31
2019-04-29T22:37:48.622Z,100500.33
2019-04-29T22:42:29.328Z,100501.55
2019-04-29T22:46:40.192Z,100504.25
2019-04-29T22:50:47.399Z,100495.28
2019-04-29T22:55:01.619Z,100500.22
2019-04-29T22:59:07.608Z,100496.92
2019-04-29T23:03:14.395Z,100496.92
2019-04-29T23:07:22.186Z,100494.91
2019-04-29T23:11:34.687Z,100489.61
2019-04-29T23:15:39.211Z,100496.92
2019-04-29T23:19:50.606Z,100493.95
2019-04-29T23:24:13.267Z,100494.91
2019-04-29T23:28:16.513Z,100496.30
2019-04-29T23:32:25.235Z,100492.21
2019-04-29T23:36:32.769Z,100491.95
2019-04-29T23:40:39.616Z,100484.68
2019-04-29T23:44:46.741Z,100492.27
2019-04-29T23:48:56.540Z,100493.79
2019-04-29T23:53:02.656Z,100494.36
2019-04-29T23:57:35.867Z,100492.33
